Time;durP1;ratioP1;P1;durP2;ratioP2;P2;SDS_P1;SDS_P2;PMS_P1;PMS_P2;Temp;Humidity;BMP_temperature;BMP_pressure;BME280_temperature;BME280_humidity;BME280_pressure;Samples;Min_cycle;Max_cycle;Signal;HPM_P1;HPM_P2
2022/01/15 00:00:34;;;;;;;18.70;9.75;;;7.10;99.90;;;;;;5115263;27;20039;-67
2022/01/15 00:02:59;;;;;;;20.55;9.98;;;7.10;99.90;;;;;;5133574;27;20088;-67
2022/01/15 00:05:25;;;;;;;18.38;9.35;;;7.10;99.90;;;;;;5115227;27;20035;-67
2022/01/15 00:07:51;;;;;;;19.20;10.70;;;7.10;99.90;;;;;;5114910;27;20086;-67
2022/01/15 00:10:20;;;;;;;20.73;10.15;;;7.10;99.90;;;;;;5115101;27;20074;-67
2022/01/15 00:12:46;;;;;;;22.02;10.85;;;7.10;99.90;;;;;;5114966;27;20035;-67
2022/01/15 00:15:22;;;;;;;18.08;10.32;;;7.10;99.90;;;;;;5114948;27;20041;-67
2022/01/15 00:20:24;;;;;;;17.80;8.95;;;7.10;99.90;;;;;;5114872;27;20054;-67
2022/01/15 00:22:52;;;;;;;15.13;8.98;;;7.10;99.90;;;;;;5114611;27;20034;-67
2022/01/15 00:25:19;;;;;;;19.02;9.32;;;7.10;99.90;;;;;;5133167;27;20343;-67
2022/01/15 00:27:45;;;;;;;19.58;9.40;;;7.10;99.90;;;;;;5114789;27;20547;-67
2022/01/15 00:30:13;;;;;;;18.90;8.93;;;7.10;99.90;;;;;;5114585;27;20129;-67
2022/01/15 00:32:39;;;;;;;16.15;8.27;;;7.10;99.90;;;;;;5114232;27;20039;-67
2022/01/15 00:35:06;;;;;;;15.95;8.57;;;7.10;99.90;;;;;;5114725;27;20674;-67
2022/01/15 00:37:32;;;;;;;16.15;8.07;;;7.10;99.90;;;;;;5133014;27;20436;-67
2022/01/15 00:40:05;;;;;;;18.08;9.43;;;7.10;99.90;;;;;;5114664;27;20532;-67
2022/01/15 00:42:33;;;;;;;15.00;8.52;;;7.10;99.90;;;;;;5114136;27;20165;-67
2022/01/15 00:45:00;;;;;;;19.27;10.00;;;7.10;99.90;;;;;;5113883;28;20078;-66
2022/01/15 00:47:31;;;;;;;16.50;8.93;;;7.10;99.90;;;;;;5114479;27;20070;-67
2022/01/15 00:49:58;;;;;;;15.43;9.23;;;7.10;99.90;;;;;;5133028;27;20514;-67
2022/01/15 00:52:23;;;;;;;15.45;8.55;;;7.00;99.90;;;;;;5114118;27;20064;-67
2022/01/15 00:54:49;;;;;;;15.88;8.82;;;7.00;99.90;;;;;;5101969;28;20122;-67
2022/01/15 00:57:14;;;;;;;16.92;9.63;;;7.10;99.90;;;;;;5101195;27;20462;-67
2022/01/15 00:59:40;;;;;;;16.95;10.13;;;7.10;99.90;;;;;;5122488;27;20047;-67
2022/01/15 01:02:06;;;;;;;17.90;9.35;;;7.10;99.90;;;;;;5113793;28;20059;-67
2022/01/15 01:04:31;;;;;;;16.67;8.75;;;7.10;99.90;;;;;;5114181;28;20110;-67
2022/01/15 01:06:57;;;;;;;13.30;7.40;;;7.10;99.90;;;;;;5114402;28;20046;-67
2022/01/15 01:09:26;;;;;;;10.68;5.90;;;7.10;99.90;;;;;;5113797;28;20517;-67
2022/01/15 01:11:57;;;;;;;10.57;6.53;;;7.10;99.90;;;;;;5132428;28;20483;-67
2022/01/15 01:20:08;;;;;;;11.82;7.07;;;7.00;99.90;;;;;;5114259;28;20077;-67
2022/01/15 01:25:03;;;;;;;10.65;6.72;;;7.00;99.90;;;;;;5114136;28;20104;-67
2022/01/15 01:27:42;;;;;;;11.13;6.93;;;7.00;99.90;;;;;;5132476;28;20043;-67
2022/01/15 01:30:14;;;;;;;11.98;6.70;;;7.00;99.90;;;;;;5132521;28;20433;-67
2022/01/15 01:32:47;;;;;;;15.13;7.22;;;7.00;99.90;;;;;;5113576;28;20044;-67
2022/01/15 01:35:27;;;;;;;9.68;5.75;;;7.00;99.90;;;;;;5114114;28;20084;-67
2022/01/15 01:37:54;;;;;;;9.18;5.35;;;7.00;99.90;;;;;;5114085;28;20119;-67
2022/01/15 01:40:25;;;;;;;12.15;7.28;;;7.10;99.90;;;;;;5113973;28;20039;-67
2022/01/15 01:42:58;;;;;;;9.32;5.68;;;7.00;99.90;;;;;;5132041;27;20043;-66
2022/01/15 01:45:24;;;;;;;11.60;6.03;;;7.00;99.90;;;;;;5114020;28;20118;-67
2022/01/15 01:47:49;;;;;;;9.50;5.97;;;7.00;99.90;;;;;;5113911;28;20122;-67
2022/01/15 01:50:21;;;;;;;11.95;6.85;;;7.00;99.90;;;;;;5132395;28;20032;-66
2022/01/15 01:52:50;;;;;;;7.80;5.47;;;7.00;99.90;;;;;;5113580;28;20047;-67
2022/01/15 01:55:18;;;;;;;8.50;5.32;;;7.00;99.90;;;;;;5113843;28;20283;-66
2022/01/15 01:57:45;;;;;;;8.38;4.68;;;6.90;99.90;;;;;;5134972;27;20043;-67
2022/01/15 02:00:13;;;;;;;4.28;3.60;;;7.00;99.90;;;;;;5117468;27;20047;-66
2022/01/15 02:02:38;;;;;;;3.25;2.75;;;7.00;99.90;;;;;;5117149;27;20047;-67
2022/01/15 02:05:05;;;;;;;3.55;2.75;;;7.00;99.90;;;;;;5117623;27;20050;-67
2022/01/15 02:07:30;;;;;;;2.83;2.35;;;7.00;99.90;;;;;;5117611;27;20039;-67
2022/01/15 02:09:57;;;;;;;2.50;2.03;;;7.00;99.90;;;;;;5117498;27;20629;-67
2022/01/15 02:12:23;;;;;;;3.75;2.65;;;7.00;99.90;;;;;;5100073;27;20035;-67
2022/01/15 02:14:49;;;;;;;3.50;2.92;;;7.00;99.90;;;;;;5135815;27;20107;-67
2022/01/15 02:17:19;;;;;;;6.50;3.70;;;7.00;99.90;;;;;;5117676;27;20547;-67
2022/01/15 02:25:43;;;;;;;8.75;4.18;;;7.00;99.90;;;;;;5117252;27;20398;-67
2022/01/15 02:28:09;;;;;;;6.72;3.70;;;6.90;99.90;;;;;;5135540;27;20054;-67
2022/01/15 02:30:35;;;;;;;5.68;3.75;;;6.90;99.90;;;;;;5117147;27;20039;-67
2022/01/15 02:33:00;;;;;;;5.78;3.50;;;6.90;99.90;;;;;;5116585;27;20049;-67
2022/01/15 02:35:26;;;;;;;6.80;3.58;;;6.90;99.90;;;;;;5117064;27;20043;-67
2022/01/15 02:37:52;;;;;;;4.15;3.28;;;6.90;99.90;;;;;;5135405;27;20031;-67
2022/01/15 02:40:17;;;;;;;4.53;3.15;;;7.00;99.90;;;;;;5135280;27;20039;-67
2022/01/15 02:42:43;;;;;;;4.63;3.38;;;6.90;99.90;;;;;;5134880;27;20039;-67
2022/01/15 02:45:09;;;;;;;5.18;3.33;;;6.90;99.90;;;;;;5135347;27;20114;-67
2022/01/15 02:50:21;;;;;;;8.02;3.40;;;6.90;99.90;;;;;;5135173;27;20039;-67
2022/01/15 02:52:48;;;;;;;4.40;3.20;;;6.90;99.90;;;;;;5116275;27;20072;-67
2022/01/15 02:55:13;;;;;;;7.90;3.55;;;6.90;99.90;;;;;;5116661;27;20043;-67
2022/01/15 02:57:39;;;;;;;5.18;3.50;;;6.80;99.90;;;;;;5116477;27;20035;-67
2022/01/15 03:00:05;;;;;;;4.90;2.95;;;6.90;99.90;;;;;;5116582;27;20122;-67
2022/01/15 03:02:33;;;;;;;4.57;2.83;;;6.90;99.90;;;;;;5115961;27;20043;-66
2022/01/15 03:04:58;;;;;;;3.58;2.60;;;6.80;99.90;;;;;;5116392;27;20064;-67
2022/01/15 03:07:24;;;;;;;4.88;3.38;;;6.80;99.90;;;;;;5116400;27;20035;-67
2022/01/15 03:09:49;;;;;;;4.28;2.95;;;6.80;99.90;;;;;;5115140;27;20092;-67
2022/01/15 03:12:15;;;;;;;8.45;3.63;;;6.80;99.90;;;;;;5134288;27;20074;-67
2022/01/15 03:14:42;;;;;;;4.68;3.00;;;6.80;99.90;;;;;;5116234;27;20039;-66
2022/01/15 03:17:08;;;;;;;4.93;2.63;;;6.90;99.90;;;;;;5116243;27;20068;-67
2022/01/15 03:19:33;;;;;;;3.08;2.30;;;6.80;99.90;;;;;;5116236;27;20103;-67
2022/01/15 03:21:59;;;;;;;2.88;2.35;;;6.90;99.90;;;;;;5115758;27;20043;-66
2022/01/15 03:24:24;;;;;;;3.47;2.70;;;6.80;99.90;;;;;;5134435;27;20031;-67
2022/01/15 03:26:50;;;;;;;3.60;2.40;;;6.80;99.90;;;;;;5134313;27;20092;-67
2022/01/15 03:29:15;;;;;;;3.88;2.90;;;6.80;99.90;;;;;;5134371;27;20701;-67
2022/01/15 03:31:41;;;;;;;4.88;2.60;;;6.80;99.90;;;;;;5115854;27;20043;-67
2022/01/15 03:34:07;;;;;;;3.80;2.75;;;6.80;99.90;;;;;;5115635;27;20087;-67
2022/01/15 03:36:32;;;;;;;4.85;2.78;;;6.80;99.90;;;;;;5115822;27;20490;-67
2022/01/15 03:38:58;;;;;;;4.13;2.38;;;6.80;99.90;;;;;;5115865;27;20487;-67
2022/01/15 03:41:24;;;;;;;4.43;3.17;;;6.80;99.90;;;;;;5115531;27;20092;-67
2022/01/15 03:43:49;;;;;;;4.05;2.80;;;6.80;99.90;;;;;;5115384;27;20039;-67
2022/01/15 03:46:15;;;;;;;3.58;2.42;;;6.80;99.90;;;;;;5115817;27;20096;-67
2022/01/15 03:48:40;;;;;;;3.33;2.60;;;6.80;99.90;;;;;;5133999;27;20042;-67
2022/01/15 03:51:06;;;;;;;2.95;2.30;;;6.80;99.90;;;;;;5133898;27;20042;-67
2022/01/15 03:53:31;;;;;;;4.97;3.00;;;6.90;99.90;;;;;;5098035;27;20047;-67
2022/01/15 03:55:57;;;;;;;3.92;2.63;;;6.80;99.90;;;;;;5115289;27;20082;-67
2022/01/15 03:58:22;;;;;;;3.95;2.90;;;6.80;99.90;;;;;;5098578;27;20047;-67
2022/01/15 04:00:48;;;;;;;4.97;2.67;;;6.80;99.90;;;;;;5115597;27;20117;-67
2022/01/15 04:03:14;;;;;;;3.45;2.88;;;6.80;99.90;;;;;;5114988;27;20035;-67
2022/01/15 04:05:40;;;;;;;7.75;2.55;;;6.80;99.90;;;;;;5115242;27;20045;-67
2022/01/15 04:08:06;;;;;;;3.92;2.90;;;6.80;99.90;;;;;;5114703;27;20035;-67
2022/01/15 04:10:32;;;;;;;4.03;2.67;;;6.80;99.90;;;;;;5115390;27;20054;-67
2022/01/15 04:12:57;;;;;;;4.38;2.85;;;6.80;99.90;;;;;;5115006;27;20035;-67
2022/01/15 04:15:24;;;;;;;3.53;2.67;;;6.80;99.90;;;;;;5115051;27;20042;-67
2022/01/15 04:17:50;;;;;;;5.18;3.00;;;6.80;99.90;;;;;;5115301;27;20066;-67
2022/01/15 04:20:20;;;;;;;4.30;2.75;;;6.80;99.90;;;;;;5115004;27;20035;-67
2022/01/15 04:22:46;;;;;;;4.15;3.03;;;6.70;99.90;;;;;;5114568;27;20047;-67
2022/01/15 04:25:12;;;;;;;3.80;2.80;;;6.70;99.90;;;;;;5133040;27;20036;-67
2022/01/15 04:27:38;;;;;;;5.22;2.85;;;6.70;99.90;;;;;;5133098;27;20028;-67
2022/01/15 04:30:08;;;;;;;5.80;3.40;;;6.70;99.90;;;;;;5133256;27;20039;-66
2022/01/15 04:32:34;;;;;;;4.80;3.38;;;6.70;99.90;;;;;;5132741;27;20035;-67
2022/01/15 04:35:00;;;;;;;6.55;3.40;;;6.70;99.90;;;;;;5097707;27;20092;-67
2022/01/15 04:37:34;;;;;;;4.93;3.15;;;6.70;99.90;;;;;;5133085;27;20431;-67
2022/01/15 04:40:01;;;;;;;4.57;2.67;;;6.70;99.90;;;;;;5097691;27;20046;-67
2022/01/15 04:42:27;;;;;;;5.10;3.15;;;6.70;99.90;;;;;;5114191;27;20047;-67
2022/01/15 04:44:52;;;;;;;6.15;4.00;;;6.70;99.90;;;;;;5114694;27;20062;-66
2022/01/15 04:47:18;;;;;;;6.80;4.18;;;6.70;99.90;;;;;;5114461;28;20488;-67
2022/01/15 04:49:43;;;;;;;6.75;3.45;;;6.70;99.90;;;;;;5114517;28;20036;-67
2022/01/15 04:52:09;;;;;;;5.25;3.80;;;6.70;99.90;;;;;;5132592;27;20049;-67
2022/01/15 04:54:36;;;;;;;5.82;3.75;;;6.70;99.90;;;;;;5132722;27;20114;-67
2022/01/15 04:57:02;;;;;;;5.00;3.60;;;6.70;99.90;;;;;;5132853;27;20039;-67
2022/01/15 04:59:27;;;;;;;5.10;3.17;;;6.70;99.90;;;;;;5114375;27;20042;-67
2022/01/15 05:01:53;;;;;;;5.40;3.58;;;6.70;99.90;;;;;;5113979;28;20039;-67
2022/01/15 05:04:19;;;;;;;5.38;3.97;;;6.70;99.90;;;;;;5113966;28;20114;-67
2022/01/15 05:06:44;;;;;;;5.60;3.60;;;6.70;99.90;;;;;;5114405;28;20046;-67
2022/01/15 05:09:10;;;;;;;7.68;4.05;;;6.70;99.90;;;;;;5114065;28;20034;-67
2022/01/15 05:11:48;;;;;;;7.60;4.63;;;6.70;99.90;;;;;;5114051;28;20035;-67
2022/01/15 05:14:16;;;;;;;7.75;3.47;;;6.70;99.90;;;;;;5114325;28;20051;-67
2022/01/15 05:16:42;;;;;;;7.25;4.18;;;6.70;99.90;;;;;;5114218;28;20051;-67
2022/01/15 05:19:07;;;;;;;5.75;3.58;;;6.70;99.90;;;;;;5114174;28;20122;-68
2022/01/15 05:21:33;;;;;;;7.45;4.38;;;6.60;99.90;;;;;;5114266;28;20575;-67
2022/01/15 05:23:59;;;;;;;5.63;3.45;;;6.60;99.90;;;;;;5114241;28;20075;-67
2022/01/15 05:26:24;;;;;;;6.82;3.33;;;6.60;99.90;;;;;;5114193;28;20035;-66
2022/01/15 05:28:50;;;;;;;6.70;4.03;;;6.70;99.90;;;;;;5114153;28;20043;-67
2022/01/15 05:31:16;;;;;;;5.65;4.10;;;6.60;99.90;;;;;;5114683;27;20491;-67
2022/01/15 05:33:41;;;;;;;6.18;4.18;;;6.70;99.90;;;;;;5117717;27;20047;-67
2022/01/15 05:36:07;;;;;;;7.65;5.13;;;6.70;99.90;;;;;;5118234;27;20479;-67
2022/01/15 05:38:32;;;;;;;6.30;4.18;;;6.70;99.90;;;;;;5118258;27;20414;-67
2022/01/15 05:40:58;;;;;;;7.30;4.30;;;6.70;99.90;;;;;;5117903;27;20096;-67
2022/01/15 05:43:23;;;;;;;8.45;4.88;;;6.60;99.90;;;;;;5117652;27;20483;-67
2022/01/15 05:45:49;;;;;;;8.70;5.35;;;6.70;99.90;;;;;;5136463;27;20035;-67
2022/01/15 05:48:15;;;;;;;12.60;6.60;;;6.60;99.90;;;;;;5118039;27;20039;-67
2022/01/15 05:50:41;;;;;;;11.30;5.80;;;6.60;99.90;;;;;;5117924;27;20035;-67
2022/01/15 05:53:07;;;;;;;10.82;6.00;;;6.60;99.90;;;;;;5117440;27;20058;-67
2022/01/15 05:55:32;;;;;;;13.05;6.68;;;6.60;99.90;;;;;;5117769;27;20507;-67
2022/01/15 05:57:58;;;;;;;8.98;5.88;;;6.60;99.90;;;;;;5117584;27;20035;-66
2022/01/15 06:00:23;;;;;;;11.43;6.10;;;6.60;99.90;;;;;;5117732;27;20407;-67
2022/01/15 06:02:49;;;;;;;11.70;6.75;;;6.60;99.90;;;;;;5117612;27;20083;-67
2022/01/15 06:05:14;;;;;;;11.02;6.43;;;6.60;99.90;;;;;;5136114;27;20047;-67
2022/01/15 06:07:40;;;;;;;12.45;7.68;;;6.60;99.90;;;;;;5117658;27;20031;-67
2022/01/15 06:10:06;;;;;;;12.52;6.80;;;6.60;99.90;;;;;;5116997;27;20490;-67
2022/01/15 06:12:41;;;;;;;12.95;7.88;;;6.50;99.90;;;;;;5135567;27;20038;-67
2022/01/15 06:15:07;;;;;;;12.10;7.13;;;6.50;99.90;;;;;;5135898;27;20410;-67
2022/01/15 06:17:33;;;;;;;13.50;7.55;;;6.50;99.90;;;;;;5117408;27;20047;-67
2022/01/15 06:19:58;;;;;;;11.75;7.30;;;6.50;99.90;;;;;;5117367;27;20037;-68
2022/01/15 06:22:24;;;;;;;11.02;6.43;;;6.50;99.90;;;;;;5116136;27;20043;-66
2022/01/15 06:24:49;;;;;;;11.40;7.15;;;6.50;99.90;;;;;;5117170;27;20035;-67
2022/01/15 06:27:16;;;;;;;11.15;6.72;;;6.50;99.90;;;;;;5117272;27;20035;-67
2022/01/15 06:29:42;;;;;;;12.55;7.07;;;6.50;99.90;;;;;;5135614;27;20114;-67
2022/01/15 06:32:08;;;;;;;11.93;7.38;;;6.40;99.90;;;;;;5116638;27;20123;-67
2022/01/15 06:34:33;;;;;;;13.13;6.95;;;6.50;99.90;;;;;;5135386;27;20042;-67
2022/01/15 06:36:59;;;;;;;11.23;6.93;;;6.40;99.90;;;;;;5116936;27;20039;-67
2022/01/15 06:39:24;;;;;;;13.85;7.60;;;6.50;99.90;;;;;;5117198;27;20088;-67
2022/01/15 06:41:50;;;;;;;14.05;7.78;;;6.40;99.90;;;;;;5116564;27;20047;-67
2022/01/15 06:44:16;;;;;;;12.07;7.03;;;6.40;99.90;;;;;;5134016;27;20124;-67
2022/01/15 06:46:41;;;;;;;13.65;7.45;;;6.40;99.90;;;;;;5117005;27;20042;-67
2022/01/15 06:49:07;;;;;;;13.10;7.13;;;6.40;99.90;;;;;;5116837;27;20042;-66
2022/01/15 06:51:32;;;;;;;10.27;7.15;;;6.40;99.90;;;;;;5116364;27;20422;-66
2022/01/15 06:53:58;;;;;;;14.52;7.65;;;6.40;99.90;;;;;;5134818;27;20705;-67
2022/01/15 06:56:23;;;;;;;13.52;7.68;;;6.30;99.90;;;;;;5135118;27;20042;-67
2022/01/15 06:58:49;;;;;;;15.60;7.78;;;6.40;99.90;;;;;;5134989;27;20042;-67
2022/01/15 07:01:14;;;;;;;13.02;7.30;;;6.30;99.90;;;;;;5134950;27;20487;-66
2022/01/15 07:03:40;;;;;;;12.05;6.72;;;6.30;99.90;;;;;;5099285;27;20114;-66
2022/01/15 07:06:05;;;;;;;12.73;6.97;;;6.30;99.90;;;;;;5116333;27;20069;-67
2022/01/15 07:08:31;;;;;;;11.00;6.82;;;6.20;99.90;;;;;;5115668;27;20411;-67
2022/01/15 07:10:57;;;;;;;11.75;6.28;;;6.30;99.90;;;;;;5134792;27;20387;-67
2022/01/15 07:13:22;;;;;;;9.85;6.00;;;6.30;99.90;;;;;;5134448;27;20043;-66
2022/01/15 07:15:48;;;;;;;10.38;5.82;;;6.30;99.90;;;;;;5116243;27;20067;-67
2022/01/15 07:18:15;;;;;;;12.85;7.07;;;6.30;99.90;;;;;;5134552;27;20037;-67
2022/01/15 07:20:42;;;;;;;11.35;6.78;;;6.30;99.90;;;;;;5116207;27;20517;-67
2022/01/15 07:23:08;;;;;;;13.80;7.45;;;6.30;99.90;;;;;;5114984;27;20051;-67
2022/01/15 07:25:34;;;;;;;11.27;6.65;;;6.30;99.90;;;;;;5115907;27;20035;-66
2022/01/15 07:27:59;;;;;;;12.68;7.32;;;6.30;99.90;;;;;;5115667;27;20035;-66
2022/01/15 07:30:25;;;;;;;11.65;6.53;;;6.30;99.90;;;;;;5134177;27;20067;-67
2022/01/15 07:32:50;;;;;;;10.40;6.55;;;6.20;99.90;;;;;;5115402;27;20047;-67
2022/01/15 07:35:16;;;;;;;11.50;6.47;;;6.20;99.90;;;;;;5134361;27;20039;-67
2022/01/15 07:37:43;;;;;;;11.13;6.95;;;6.20;99.90;;;;;;5098761;27;20082;-67
2022/01/15 07:40:09;;;;;;;12.02;7.22;;;6.20;99.90;;;;;;5098978;27;20151;-67
2022/01/15 07:42:39;;;;;;;9.95;6.18;;;6.20;99.90;;;;;;5115149;27;20057;-66
2022/01/15 07:45:10;;;;;;;12.13;6.78;;;6.20;99.90;;;;;;5133997;27;20046;-67
2022/01/15 07:47:37;;;;;;;11.00;6.45;;;6.20;99.90;;;;;;5115829;27;20043;-67
2022/01/15 07:50:11;;;;;;;9.63;5.38;;;6.10;99.90;;;;;;5134063;27;20043;-67
2022/01/15 07:52:36;;;;;;;10.45;5.82;;;6.10;99.90;;;;;;5115159;27;20096;-67
2022/01/15 07:55:04;;;;;;;11.80;5.93;;;6.10;99.90;;;;;;5133177;27;20035;-67
2022/01/15 07:57:32;;;;;;;13.82;6.05;;;6.20;99.90;;;;;;5131403;27;20043;-67
2022/01/15 07:59:58;;;;;;;11.75;5.97;;;6.10;99.90;;;;;;5112711;27;20043;-67
2022/01/15 08:02:24;;;;;;;13.98;6.70;;;6.10;99.90;;;;;;5114953;27;20118;-67
2022/01/15 08:04:50;;;;;;;10.32;6.75;;;6.10;99.90;;;;;;5133118;27;20035;-67
2022/01/15 08:07:18;;;;;;;12.43;6.50;;;6.10;99.90;;;;;;5133651;27;20042;-67
2022/01/15 08:09:44;;;;;;;14.52;7.85;;;6.10;99.90;;;;;;5132370;27;20043;-67
2022/01/15 08:12:11;;;;;;;14.82;6.95;;;6.10;99.90;;;;;;5119716;27;20102;-66
2022/01/15 08:14:37;;;;;;;15.80;7.85;;;6.10;99.90;;;;;;5143832;27;20041;-67
2022/01/15 08:17:02;;;;;;;14.07;7.38;;;6.10;99.90;;;;;;5120598;27;20479;-67
2022/01/15 08:19:28;;;;;;;15.07;7.85;;;6.10;99.90;;;;;;5136905;27;20070;-67
2022/01/15 08:21:54;;;;;;;16.95;8.20;;;6.00;99.90;;;;;;5118681;27;20051;-67
2022/01/15 08:24:19;;;;;;;15.63;8.32;;;6.10;99.90;;;;;;5131894;27;20544;-67
2022/01/15 08:26:45;;;;;;;21.35;10.55;;;6.00;99.90;;;;;;5132552;27;20035;-67
2022/01/15 08:29:11;;;;;;;22.25;9.90;;;6.00;99.90;;;;;;5133207;27;20042;-67
2022/01/15 08:31:36;;;;;;;20.50;9.43;;;6.00;99.90;;;;;;5133083;27;20039;-67
2022/01/15 08:34:02;;;;;;;22.15;9.95;;;6.00;99.90;;;;;;5132969;27;20062;-67
2022/01/15 08:36:28;;;;;;;20.33;9.98;;;6.00;99.90;;;;;;5114677;27;20041;-67
2022/01/15 08:38:54;;;;;;;21.85;10.52;;;6.00;99.90;;;;;;5114761;27;20170;-67
2022/01/15 08:41:19;;;;;;;24.88;11.18;;;5.90;99.90;;;;;;5097695;27;20063;-67
2022/01/15 08:43:45;;;;;;;25.35;11.90;;;6.00;99.90;;;;;;5114339;27;20039;-67
2022/01/15 08:46:11;;;;;;;25.60;11.20;;;5.90;99.90;;;;;;5114546;27;20062;-67
2022/01/15 08:48:37;;;;;;;25.80;11.90;;;5.90;99.90;;;;;;5114604;27;20039;-67
2022/01/15 08:51:03;;;;;;;22.95;12.02;;;5.90;99.90;;;;;;5114844;27;20047;-67
2022/01/15 08:53:28;;;;;;;22.50;10.75;;;5.90;99.90;;;;;;5097475;27;20041;-67
2022/01/15 08:55:55;;;;;;;21.95;10.82;;;5.80;99.90;;;;;;5114504;27;20091;-67
2022/01/15 08:58:20;;;;;;;20.50;10.32;;;5.90;99.90;;;;;;5114599;27;20039;-67
2022/01/15 09:00:47;;;;;;;19.60;9.38;;;5.80;99.90;;;;;;5114471;27;20591;-67
2022/01/15 09:03:13;;;;;;;20.73;10.02;;;5.80;99.90;;;;;;5097188;28;20044;-67
2022/01/15 09:05:39;;;;;;;19.60;9.88;;;5.80;99.90;;;;;;5132366;27;20054;-67
2022/01/15 09:08:08;;;;;;;21.33;11.23;;;5.80;99.90;;;;;;5132128;28;20045;-67
2022/01/15 09:10:41;;;;;;;22.23;11.45;;;5.70;99.90;;;;;;5132947;28;20054;-67
2022/01/15 09:13:10;;;;;;;27.35;12.40;;;5.70;99.90;;;;;;5131916;28;20047;-67
2022/01/15 09:15:36;;;;;;;23.50;11.68;;;5.70;99.90;;;;;;5132449;28;20035;-67
2022/01/15 09:18:04;;;;;;;24.50;12.48;;;5.80;99.90;;;;;;5116524;28;20412;-66
2022/01/15 09:20:30;;;;;;;20.80;10.90;;;5.80;99.90;;;;;;5132480;28;20036;-69
2022/01/15 09:22:56;;;;;;;24.90;12.80;;;5.80;99.90;;;;;;5113687;28;20035;-69
2022/01/15 09:25:22;;;;;;;22.60;11.80;;;5.80;99.90;;;;;;5118117;28;20062;-67
2022/01/15 09:30:33;;;;;;;22.30;12.27;;;5.80;99.90;;;;;;5117254;28;20063;-67
2022/01/15 09:32:58;;;;;;;23.67;12.52;;;5.80;99.90;;;;;;5132034;28;20082;-67
2022/01/15 09:35:27;;;;;;;19.33;9.93;;;5.80;99.90;;;;;;5132346;28;20491;-68
2022/01/15 09:37:53;;;;;;;17.05;10.48;;;5.70;99.90;;;;;;5114096;28;20078;-66
2022/01/15 09:40:21;;;;;;;18.55;10.05;;;5.80;99.90;;;;;;5097239;28;20407;-66
2022/01/15 09:42:49;;;;;;;19.77;9.60;;;5.70;99.90;;;;;;5113648;28;20047;-66
2022/01/15 09:45:16;;;;;;;19.60;9.85;;;5.70;99.90;;;;;;5113839;28;20035;-67
2022/01/15 09:47:43;;;;;;;19.88;10.10;;;5.70;99.90;;;;;;5132214;28;20055;-66
2022/01/15 09:50:12;;;;;;;16.88;8.77;;;5.70;99.90;;;;;;5132350;28;20035;-68
2022/01/15 09:52:38;;;;;;;17.10;9.32;;;5.90;99.90;;;;;;5113194;28;20043;-68
2022/01/15 09:55:09;;;;;;;18.50;10.38;;;5.80;99.90;;;;;;5113896;28;20490;-67
2022/01/15 09:57:37;;;;;;;17.42;10.35;;;5.80;99.90;;;;;;5113773;28;20039;-67
2022/01/15 10:00:15;;;;;;;18.02;10.10;;;5.80;99.90;;;;;;5113832;28;20498;-66
2022/01/15 10:02:46;;;;;;;17.35;9.38;;;5.80;99.90;;;;;;5131660;28;20568;-67
2022/01/15 10:05:14;;;;;;;16.60;9.27;;;5.80;99.90;;;;;;5113761;28;20035;-66
2022/01/15 10:08:01;;;;;;;20.00;11.32;;;5.80;99.90;;;;;;5132264;28;20432;-67
2022/01/15 10:10:31;;;;;;;27.88;12.38;;;5.80;99.90;;;;;;5113709;28;20043;-67
2022/01/15 10:13:18;;;;;;;25.17;12.85;;;5.80;99.90;;;;;;5113263;28;20039;-67
2022/01/15 10:15:46;;;;;;;21.02;11.25;;;5.80;99.90;;;;;;5113462;28;20039;-67
2022/01/15 10:18:26;;;;;;;22.30;11.13;;;5.80;99.90;;;;;;5133900;27;20035;-67
2022/01/15 10:20:55;;;;;;;20.90;11.43;;;5.80;99.90;;;;;;5116554;27;20046;-67
2022/01/15 10:23:22;;;;;;;20.17;11.48;;;5.80;99.90;;;;;;5114142;27;20069;-66
2022/01/15 10:26:16;;;;;;;21.25;12.05;;;5.80;99.90;;;;;;5116754;27;20111;-67
2022/01/15 10:28:47;;;;;;;;;;;5.70;99.90;;;;;;5133886;27;20084;-68
2022/01/15 10:31:21;;;;;;;24.30;12.30;;;5.80;99.90;;;;;;5145971;27;20014;-68
2022/01/15 10:33:47;;;;;;;23.75;12.32;;;5.80;99.90;;;;;;5140219;27;20035;-68
2022/01/15 10:36:24;;;;;;;26.02;12.88;;;5.80;99.90;;;;;;5097523;27;20050;-68
2022/01/15 10:38:53;;;;;;;26.17;13.98;;;5.80;99.90;;;;;;5135130;27;20456;-68
2022/01/15 10:41:36;;;;;;;24.38;12.63;;;5.80;99.90;;;;;;5102910;27;20035;-68
2022/01/15 10:44:35;;;;;;;25.83;13.57;;;5.70;99.90;;;;;;5116723;27;20476;-67
2022/01/15 10:47:16;;;;;;;25.55;14.07;;;5.70;99.90;;;;;;5099167;27;20458;-68
2022/01/15 10:49:42;;;;;;;23.90;12.63;;;5.70;99.90;;;;;;5115902;27;20035;-68
2022/01/15 10:52:12;;;;;;;26.90;13.38;;;5.70;99.90;;;;;;5115621;27;20039;-68
2022/01/15 10:54:57;;;;;;;22.65;13.38;;;5.80;99.90;;;;;;5115837;27;20505;-68
2022/01/15 10:57:38;;;;;;;26.23;13.90;;;5.80;99.90;;;;;;5116270;27;20051;-68
2022/01/15 11:00:16;;;;;;;24.17;13.48;;;5.80;99.90;;;;;;5116093;27;20123;-68
2022/01/15 11:02:54;;;;;;;24.63;13.88;;;5.80;99.90;;;;;;5134197;27;20077;-68
2022/01/15 11:05:38;;;;;;;26.13;15.30;;;5.80;99.90;;;;;;5116544;27;20039;-69
2022/01/15 11:08:15;;;;;;;29.30;14.38;;;5.80;99.90;;;;;;5116019;27;20043;-68
2022/01/15 11:10:44;;;;;;;25.70;13.38;;;5.90;99.90;;;;;;5134885;27;20455;-68
2022/01/15 11:13:11;;;;;;;30.38;16.00;;;5.90;99.90;;;;;;5116070;27;20046;-68
2022/01/15 11:15:39;;;;;;;27.85;14.77;;;5.80;99.90;;;;;;5116209;27;20051;-68
2022/01/15 11:18:04;;;;;;;27.00;13.63;;;6.00;99.90;;;;;;5115848;27;20057;-68
2022/01/15 11:20:33;;;;;;;25.50;13.63;;;6.00;99.90;;;;;;5134438;27;20043;-68
2022/01/15 11:23:02;;;;;;;29.80;13.60;;;6.10;99.90;;;;;;5115579;27;20043;-67
2022/01/15 11:25:29;;;;;;;28.55;14.27;;;6.00;99.90;;;;;;5134375;27;20391;-67
2022/01/15 11:27:57;;;;;;;26.30;13.20;;;6.20;99.90;;;;;;5136542;27;21238;-68
2022/01/15 11:30:23;;;;;;;29.42;14.07;;;6.30;99.90;;;;;;5120525;27;20122;-67
2022/01/15 11:32:49;;;;;;;27.50;14.18;;;6.10;99.90;;;;;;5123164;27;20038;-67
2022/01/15 11:35:15;;;;;;;26.90;14.23;;;5.90;99.90;;;;;;5118823;27;20043;-67
2022/01/15 11:37:56;;;;;;;25.65;14.05;;;6.00;99.90;;;;;;5116246;27;20128;-67
2022/01/15 11:40:46;;;;;;;24.02;13.48;;;5.90;99.90;;;;;;5115878;27;20047;-67
2022/01/15 11:43:24;;;;;;;26.08;13.32;;;5.90;99.90;;;;;;5115472;27;20058;-67
2022/01/15 11:45:56;;;;;;;23.30;13.20;;;6.00;99.90;;;;;;5115850;27;20043;-67
2022/01/15 11:48:30;;;;;;;28.40;13.63;;;5.90;99.90;;;;;;5115641;27;20087;-67
2022/01/15 11:51:14;;;;;;;28.27;12.82;;;6.00;99.90;;;;;;5115242;27;20053;-67
2022/01/15 11:53:54;;;;;;;26.02;14.20;;;5.90;99.90;;;;;;5112599;27;20035;-67
2022/01/15 11:56:26;;;;;;;31.50;15.32;;;5.90;99.90;;;;;;5112717;27;20062;-67
2022/01/15 11:58:54;;;;;;;24.08;13.75;;;5.90;99.90;;;;;;5133552;27;20083;-67
2022/01/15 12:01:37;;;;;;;27.20;14.38;;;5.90;99.90;;;;;;5144698;27;20047;-67
2022/01/15 12:04:26;;;;;;;29.15;14.68;;;5.80;99.90;;;;;;5144244;27;20049;-67
2022/01/15 12:07:09;;;;;;;23.70;13.85;;;5.80;99.90;;;;;;5120218;27;20039;-67
2022/01/15 12:09:39;;;;;;;28.00;13.95;;;5.80;99.90;;;;;;5121098;27;20479;-67
2022/01/15 12:12:20;;;;;;;25.20;13.70;;;5.80;99.90;;;;;;5119613;27;20114;-66
2022/01/15 12:14:51;;;;;;;25.70;13.85;;;5.90;99.90;;;;;;5114868;27;20050;-67
2022/01/15 12:17:42;;;;;;;24.60;13.77;;;5.90;99.90;;;;;;5133519;27;20110;-66
2022/01/15 12:20:17;;;;;;;24.92;13.65;;;5.90;99.90;;;;;;5115088;27;20126;-67
2022/01/15 12:22:48;;;;;;;25.63;14.25;;;5.80;99.90;;;;;;5132905;27;20057;-67
2022/01/15 12:25:17;;;;;;;23.67;13.98;;;5.70;99.90;;;;;;5114989;27;20074;-67
2022/01/15 12:27:45;;;;;;;26.17;14.00;;;5.60;99.90;;;;;;5133344;27;20081;-66
2022/01/15 12:30:17;;;;;;;24.77;13.32;;;5.60;99.90;;;;;;5133325;27;20044;-66
2022/01/15 12:32:45;;;;;;;24.85;13.57;;;5.60;99.90;;;;;;5132744;27;20035;-67
2022/01/15 12:35:22;;;;;;;24.02;13.68;;;5.50;99.90;;;;;;5133149;27;20134;-67
2022/01/15 12:38:21;;;;;;;23.95;13.20;;;5.70;99.90;;;;;;5115092;27;20118;-67
2022/01/15 12:40:56;;;;;;;27.67;13.63;;;5.60;99.90;;;;;;5114015;28;20061;-67
2022/01/15 12:43:29;;;;;;;23.40;13.18;;;5.50;99.90;;;;;;5132644;27;20065;-67
2022/01/15 12:45:58;;;;;;;28.40;13.68;;;5.40;99.90;;;;;;5114609;27;20046;-67
2022/01/15 12:48:36;;;;;;;30.80;15.07;;;5.40;99.90;;;;;;5114593;27;20115;-66
2022/01/15 12:51:09;;;;;;;28.10;15.45;;;5.50;99.90;;;;;;5114437;27;20047;-67
2022/01/15 12:53:38;;;;;;;25.88;14.18;;;5.50;99.90;;;;;;5114100;27;20047;-66
2022/01/15 12:56:09;;;;;;;26.65;14.18;;;5.50;99.90;;;;;;5132833;27;20418;-67
2022/01/15 12:58:35;;;;;;;27.42;14.38;;;5.50;99.90;;;;;;5132814;27;20395;-67
2022/01/15 13:01:03;;;;;;;24.23;14.88;;;5.50;99.90;;;;;;5114369;27;20065;-67
2022/01/15 13:03:30;;;;;;;25.92;14.90;;;5.50;99.90;;;;;;5113900;28;20084;-67
2022/01/15 13:06:03;;;;;;;32.17;14.23;;;5.50;99.90;;;;;;5114381;28;20513;-67
2022/01/15 13:08:41;;;;;;;32.33;16.08;;;5.60;99.90;;;;;;5132498;28;20088;-67
2022/01/15 13:13:39;;;;;;;27.27;15.60;;;5.50;99.90;;;;;;5113975;28;20126;-67
2022/01/15 13:16:07;;;;;;;27.67;14.52;;;5.50;99.90;;;;;;5132667;28;20039;-67
2022/01/15 13:18:35;;;;;;;31.58;15.77;;;5.50;99.90;;;;;;5132579;28;20043;-67